Strona główna
METAR-TAF:

METAR-TAF

Lotnisko :

Port lotniczy Hawarden

Hawarden, Walia

Szerokość geograficzna: 53-10N, Długość geograficzna: 002-59W, wysokość: 10 m

Aktualna obserwacja pogody

Raport powstał 43 minut temu, godzina 19:50 UTC
Wiatr 6 kt od południowy wschód
Temperatura 16°C
Wilgotność 88%
Ciśnienie 1010 hPa
Widzialność 10 km lub więcej
Mało chmury na wysokości 2800 ft
Przerywane chmury na wysokości 4000 ft

METAR: EGNR 171950Z 14006KT 9999 FEW028 BKN040 16/14 Q1010

czas: 21:33 (20:33 UTC)

Prognoza

Raport powstał 2 godziny i 25 minut temu, godzina 18:08 UTC
Prognoza ważna od 17 godzina 18 UTC do 17 godzina 20 UTC
Wiatr 8 kt od południe
Widzialność 10 km lub więcej
Przerywane chmury na wysokości 2500 ft
Przejściowo
od 17 godzina 18 UTC do 17 godzina 20 UTC
Widzialność: 6000 m
Przerywane chmury na wysokości 1000 ft
deszcz

TAF: EGNR 171808Z 1718/1720 18008KT 9999 BKN025 TEMPO 1718/1720 6000 RA BKN010

Obserwacja i prognoza pogody dla ponad 4000 lotnisk (raport METAR i TAF).

Dostępne stacje oznaczono żółtymi i czerwonymi punktami na mapie.

Najedź kursorem aby zobaczyć nazwę stacji.

Kliknij aby zobaczyć obserwacje i prognozy pogody.

Aby zmienić mapę: kliknij na zielony przycisk z czarnym krzyżykiem, aby powiększyć; na zielony przycisk z myślnikiem, aby pomniejszyć; na zielone strzałki, aby przejść do map sąsiednich.


METAR-TAF: